Nashville, TN (37229)

8:16 PM CDT on July 21, 2017 (GMT -0500)
Vanderbilt University WeatherSTEM | | Change Station
Active Advisory: Heat Advisory

Elev 551 ft 36.14 °N, 86.81 °W | Updated 4 minutes ago

Clear
Clear
89.9 °F
Feels Like 101 °F
N
2.0
Wind Variable Wind from SW

Today
High -- | Low -- °F
--% Chance of Precip.
Yesterday
High -- | Low -- °F
Precip. -- in
Pressure 29.95 in
Visibility 10.0 miles
Clouds Scattered Clouds 5500 ft
Scattered Clouds 25000 ft
Heat Index 101 °F
Dew Point 76 °F
Humidity 63%
Rainfall 0.00 in
Snow Depth Not available.
5:45 AM 8:00 PM
Waning Crescent, 3% visible
METAR KBNA 220053Z 23003KT 10SM SCT055 SCT250 32/23 A2998 RMK AO2 SLP142 T03220233
Pressure 29.95 in
Visibility 10.0 miles
Clouds Scattered Clouds 5500 ft
Scattered Clouds 25000 ft
Heat Index 101 °F
Dew Point 76 °F
Humidity 63%
Rainfall 0.00 in
Snow Depth Not available.
5:45 AM 8:00 PM
Waning Crescent, 3% visible
METAR KBNA 220053Z 23003KT 10SM SCT055 SCT250 32/23 A2998 RMK AO2 SLP142 T03220233

Get Your Daily Forecast Email!

Thanks for signing up!

Be on the lookout for a verification email in your inbox.

You'll start receiving severe weather alerts in your inbox..

×

10-Day Weather Forecast

Almanac

Astronomy

Jul. 21, 2017 Rise Set
Actual Time
Civil Twilight
Nautical Twilight
Astronomical Twilight
Moon
Length of Visible Light
Length of Day
Tomorrow will be .
, % of the Moon is Illuminated

Today's Extremes

State Highs State Lows

Community

WunderPhotos

Category 6

Welcome to Category 6. This is the collective home for Weather Underground's featured writeups by Dr. Jeff Masters (right), Bob Henson (left), Chris Burt, and other regular contributors.

Nearby

Air Quality

  Air Quality AQ Index Pollutant
Not available.

Snow Depth

Station Depth Elevation

Earthquake Activity

City Distance Mag. Time & Date
Minimum magnitude displayed is 2.5.

Coastal Water Temperatures

Place Temperature

Stations

Nearby Weather Stations

Station Location Temp. Windchill Dew Point Humidity Wind Precip. Elev Updated Type
                   

Watches & Warnings

Heat Advisory
Issued: 2:45 PM CDT Jul. 21, 2017 – National Weather Service

... Heat advisory remains in effect until 7 PM CDT Saturday...

* heat index values... 100 to 106 tomorrow afternoon.

* Impacts... the combination of hot temperatures and high
humidity will lead to an increased risk of heat related stress
and illness. The very Young, the elderly, those without air
conditioning, and those participating in strenuous outdoor
activities will be the most susceptible. Also, car interiors
will reach lethal temperatures in a matter of minutes.

Precautionary/preparedness actions...

A heat advisory means that a period of hot temperatures is
expected. The combination of hot temperatures and high humidity
will combine to create a situation in which heat illnesses are
possible. Drink plenty of fluids... stay in an air-conditioned
room... stay out of the sun... and check up on relatives and
neighbors.



27